sensor_id;sensor_type;location;lat;lon;timestamp;P1;durP1;ratioP1;P2;durP2;ratioP2
8312;SDS011;4194;43.408;24.626;2023-09-18T00:00:47;8.47;;;5.30;;
8312;SDS011;4194;43.408;24.626;2023-09-18T00:03:17;7.83;;;4.80;;
8312;SDS011;4194;43.408;24.626;2023-09-18T00:05:44;5.43;;;4.70;;
8312;SDS011;4194;43.408;24.626;2023-09-18T00:08:12;7.30;;;5.03;;
8312;SDS011;4194;43.408;24.626;2023-09-18T00:10:38;5.77;;;4.60;;
8312;SDS011;4194;43.408;24.626;2023-09-18T00:13:04;8.67;;;5.17;;
8312;SDS011;4194;43.408;24.626;2023-09-18T00:15:30;8.53;;;5.10;;
8312;SDS011;4194;43.408;24.626;2023-09-18T00:17:56;9.80;;;5.77;;
8312;SDS011;4194;43.408;24.626;2023-09-18T00:20:22;8.57;;;5.40;;
8312;SDS011;4194;43.408;24.626;2023-09-18T00:22:52;7.57;;;5.03;;
8312;SDS011;4194;43.408;24.626;2023-09-18T00:25:21;6.13;;;4.90;;
8312;SDS011;4194;43.408;24.626;2023-09-18T00:27:47;6.70;;;5.13;;
8312;SDS011;4194;43.408;24.626;2023-09-18T00:30:13;8.27;;;4.83;;
8312;SDS011;4194;43.408;24.626;2023-09-18T00:32:39;6.20;;;5.23;;
8312;SDS011;4194;43.408;24.626;2023-09-18T00:35:05;13.57;;;5.33;;
8312;SDS011;4194;43.408;24.626;2023-09-18T00:37:31;8.10;;;5.30;;
8312;SDS011;4194;43.408;24.626;2023-09-18T00:39:57;5.87;;;4.70;;
8312;SDS011;4194;43.408;24.626;2023-09-18T00:42:23;8.83;;;4.63;;
8312;SDS011;4194;43.408;24.626;2023-09-18T00:44:49;7.03;;;4.97;;
8312;SDS011;4194;43.408;24.626;2023-09-18T00:47:15;5.67;;;4.70;;
8312;SDS011;4194;43.408;24.626;2023-09-18T00:49:43;6.53;;;4.87;;
8312;SDS011;4194;43.408;24.626;2023-09-18T00:52:12;10.87;;;4.90;;
8312;SDS011;4194;43.408;24.626;2023-09-18T00:54:40;6.60;;;4.90;;
8312;SDS011;4194;43.408;24.626;2023-09-18T00:57:06;13.00;;;6.27;;
8312;SDS011;4194;43.408;24.626;2023-09-18T00:59:34;9.73;;;5.00;;
8312;SDS011;4194;43.408;24.626;2023-09-18T01:01:59;8.13;;;5.17;;
8312;SDS011;4194;43.408;24.626;2023-09-18T01:04:26;7.60;;;4.70;;
8312;SDS011;4194;43.408;24.626;2023-09-18T01:06:53;11.70;;;5.63;;
8312;SDS011;4194;43.408;24.626;2023-09-18T01:09:21;10.53;;;5.93;;
8312;SDS011;4194;43.408;24.626;2023-09-18T01:14:20;9.87;;;5.83;;
8312;SDS011;4194;43.408;24.626;2023-09-18T01:17:09;9.33;;;5.97;;
8312;SDS011;4194;43.408;24.626;2023-09-18T01:19:38;5.57;;;5.07;;
8312;SDS011;4194;43.408;24.626;2023-09-18T01:22:08;7.83;;;5.67;;
8312;SDS011;4194;43.408;24.626;2023-09-18T01:24:35;7.80;;;5.53;;
8312;SDS011;4194;43.408;24.626;2023-09-18T01:27:02;15.53;;;5.90;;
8312;SDS011;4194;43.408;24.626;2023-09-18T01:29:29;7.17;;;5.70;;
8312;SDS011;4194;43.408;24.626;2023-09-18T01:31:56;5.83;;;5.30;;
8312;SDS011;4194;43.408;24.626;2023-09-18T01:34:25;7.07;;;5.57;;
8312;SDS011;4194;43.408;24.626;2023-09-18T01:36:53;8.50;;;5.53;;
8312;SDS011;4194;43.408;24.626;2023-09-18T01:39:22;6.77;;;5.43;;
8312;SDS011;4194;43.408;24.626;2023-09-18T01:41:49;10.73;;;5.60;;
8312;SDS011;4194;43.408;24.626;2023-09-18T01:44:15;9.93;;;5.67;;
8312;SDS011;4194;43.408;24.626;2023-09-18T01:46:41;8.77;;;5.40;;
8312;SDS011;4194;43.408;24.626;2023-09-18T01:49:09;6.77;;;5.57;;
8312;SDS011;4194;43.408;24.626;2023-09-18T01:51:34;9.40;;;5.70;;
8312;SDS011;4194;43.408;24.626;2023-09-18T01:54:00;5.93;;;5.40;;
8312;SDS011;4194;43.408;24.626;2023-09-18T01:56:26;10.17;;;5.93;;
8312;SDS011;4194;43.408;24.626;2023-09-18T01:58:51;9.17;;;6.60;;
8312;SDS011;4194;43.408;24.626;2023-09-18T02:01:17;11.10;;;6.47;;
8312;SDS011;4194;43.408;24.626;2023-09-18T02:03:43;9.20;;;6.60;;
8312;SDS011;4194;43.408;24.626;2023-09-18T02:06:10;6.70;;;5.70;;
8312;SDS011;4194;43.408;24.626;2023-09-18T02:08:36;8.47;;;7.03;;
8312;SDS011;4194;43.408;24.626;2023-09-18T02:11:02;12.67;;;6.07;;
8312;SDS011;4194;43.408;24.626;2023-09-18T02:13:29;8.87;;;6.10;;
8312;SDS011;4194;43.408;24.626;2023-09-18T02:15:56;9.83;;;6.77;;
8312;SDS011;4194;43.408;24.626;2023-09-18T02:18:21;10.93;;;6.83;;
8312;SDS011;4194;43.408;24.626;2023-09-18T02:20:47;12.67;;;6.13;;
8312;SDS011;4194;43.408;24.626;2023-09-18T02:23:17;10.27;;;6.27;;
8312;SDS011;4194;43.408;24.626;2023-09-18T02:25:43;11.77;;;6.80;;
8312;SDS011;4194;43.408;24.626;2023-09-18T02:28:09;10.30;;;6.90;;
8312;SDS011;4194;43.408;24.626;2023-09-18T02:30:35;13.30;;;6.73;;
8312;SDS011;4194;43.408;24.626;2023-09-18T02:33:01;9.77;;;6.63;;
8312;SDS011;4194;43.408;24.626;2023-09-18T02:35:28;9.00;;;6.67;;
8312;SDS011;4194;43.408;24.626;2023-09-18T02:37:54;12.40;;;6.43;;
8312;SDS011;4194;43.408;24.626;2023-09-18T02:40:20;9.20;;;6.57;;
8312;SDS011;4194;43.408;24.626;2023-09-18T02:42:46;7.57;;;6.50;;
8312;SDS011;4194;43.408;24.626;2023-09-18T02:45:11;9.47;;;6.37;;
8312;SDS011;4194;43.408;24.626;2023-09-18T02:47:37;11.90;;;6.60;;
8312;SDS011;4194;43.408;24.626;2023-09-18T02:50:06;7.13;;;6.27;;
8312;SDS011;4194;43.408;24.626;2023-09-18T02:52:32;10.73;;;6.77;;
8312;SDS011;4194;43.408;24.626;2023-09-18T02:54:58;8.33;;;7.00;;
8312;SDS011;4194;43.408;24.626;2023-09-18T02:57:24;8.33;;;6.97;;
8312;SDS011;4194;43.408;24.626;2023-09-18T02:59:49;8.13;;;6.73;;
8312;SDS011;4194;43.408;24.626;2023-09-18T03:02:15;11.50;;;7.33;;
8312;SDS011;4194;43.408;24.626;2023-09-18T03:04:41;9.33;;;7.40;;
8312;SDS011;4194;43.408;24.626;2023-09-18T03:07:06;11.90;;;6.67;;
8312;SDS011;4194;43.408;24.626;2023-09-18T03:09:32;10.10;;;6.50;;
8312;SDS011;4194;43.408;24.626;2023-09-18T03:11:58;10.87;;;6.57;;
8312;SDS011;4194;43.408;24.626;2023-09-18T03:14:23;12.00;;;6.77;;
8312;SDS011;4194;43.408;24.626;2023-09-18T03:16:49;11.60;;;7.00;;
8312;SDS011;4194;43.408;24.626;2023-09-18T03:19:15;9.77;;;6.70;;
8312;SDS011;4194;43.408;24.626;2023-09-18T03:21:41;8.43;;;7.13;;
8312;SDS011;4194;43.408;24.626;2023-09-18T03:24:07;11.17;;;7.13;;
8312;SDS011;4194;43.408;24.626;2023-09-18T03:26:32;10.17;;;7.10;;
8312;SDS011;4194;43.408;24.626;2023-09-18T03:28:58;13.03;;;7.17;;
8312;SDS011;4194;43.408;24.626;2023-09-18T03:31:24;14.20;;;7.70;;
8312;SDS011;4194;43.408;24.626;2023-09-18T03:33:49;13.13;;;7.63;;
8312;SDS011;4194;43.408;24.626;2023-09-18T03:36:15;10.03;;;7.67;;
8312;SDS011;4194;43.408;24.626;2023-09-18T03:38:41;11.83;;;8.13;;
8312;SDS011;4194;43.408;24.626;2023-09-18T03:41:07;15.00;;;7.37;;
8312;SDS011;4194;43.408;24.626;2023-09-18T03:43:32;10.37;;;7.37;;
8312;SDS011;4194;43.408;24.626;2023-09-18T03:46:05;8.50;;;7.10;;
8312;SDS011;4194;43.408;24.626;2023-09-18T03:48:32;14.77;;;7.80;;
8312;SDS011;4194;43.408;24.626;2023-09-18T03:51:05;15.60;;;7.47;;
8312;SDS011;4194;43.408;24.626;2023-09-18T03:53:32;10.50;;;7.63;;
8312;SDS011;4194;43.408;24.626;2023-09-18T03:55:59;11.40;;;7.93;;
8312;SDS011;4194;43.408;24.626;2023-09-18T03:58:25;10.97;;;7.47;;
8312;SDS011;4194;43.408;24.626;2023-09-18T04:00:51;12.43;;;8.17;;
8312;SDS011;4194;43.408;24.626;2023-09-18T04:03:17;12.60;;;8.03;;
8312;SDS011;4194;43.408;24.626;2023-09-18T04:05:43;9.63;;;7.83;;
8312;SDS011;4194;43.408;24.626;2023-09-18T04:08:09;8.93;;;7.87;;
8312;SDS011;4194;43.408;24.626;2023-09-18T04:10:36;12.93;;;8.00;;
8312;SDS011;4194;43.408;24.626;2023-09-18T04:13:02;10.97;;;8.63;;
8312;SDS011;4194;43.408;24.626;2023-09-18T04:15:28;12.03;;;8.33;;
8312;SDS011;4194;43.408;24.626;2023-09-18T04:17:55;16.17;;;8.50;;
8312;SDS011;4194;43.408;24.626;2023-09-18T04:20:21;11.93;;;8.40;;
8312;SDS011;4194;43.408;24.626;2023-09-18T04:23:18;16.83;;;8.30;;
8312;SDS011;4194;43.408;24.626;2023-09-18T04:25:43;9.90;;;7.43;;
8312;SDS011;4194;43.408;24.626;2023-09-18T04:28:10;12.60;;;7.33;;
8312;SDS011;4194;43.408;24.626;2023-09-18T04:30:37;10.10;;;6.97;;
8312;SDS011;4194;43.408;24.626;2023-09-18T04:33:03;14.07;;;7.17;;
8312;SDS011;4194;43.408;24.626;2023-09-18T04:35:29;11.33;;;6.90;;
8312;SDS011;4194;43.408;24.626;2023-09-18T04:37:56;10.27;;;7.07;;
8312;SDS011;4194;43.408;24.626;2023-09-18T04:40:23;10.30;;;6.90;;
8312;SDS011;4194;43.408;24.626;2023-09-18T04:42:49;10.90;;;6.83;;
8312;SDS011;4194;43.408;24.626;2023-09-18T04:45:15;12.30;;;6.90;;
8312;SDS011;4194;43.408;24.626;2023-09-18T04:47:41;11.83;;;7.67;;
8312;SDS011;4194;43.408;24.626;2023-09-18T04:50:07;11.03;;;6.87;;
8312;SDS011;4194;43.408;24.626;2023-09-18T04:52:33;14.50;;;6.27;;
8312;SDS011;4194;43.408;24.626;2023-09-18T04:54:59;9.20;;;6.70;;
8312;SDS011;4194;43.408;24.626;2023-09-18T04:57:50;15.70;;;7.90;;
8312;SDS011;4194;43.408;24.626;2023-09-18T05:00:16;8.17;;;5.97;;
8312;SDS011;4194;43.408;24.626;2023-09-18T05:02:42;12.40;;;6.13;;
8312;SDS011;4194;43.408;24.626;2023-09-18T05:05:08;13.67;;;6.27;;
8312;SDS011;4194;43.408;24.626;2023-09-18T05:07:34;9.80;;;5.87;;
8312;SDS011;4194;43.408;24.626;2023-09-18T05:10:00;13.77;;;5.53;;
8312;SDS011;4194;43.408;24.626;2023-09-18T05:12:26;8.07;;;4.40;;
8312;SDS011;4194;43.408;24.626;2023-09-18T05:14:52;7.47;;;4.13;;
8312;SDS011;4194;43.408;24.626;2023-09-18T05:17:17;11.60;;;4.60;;
8312;SDS011;4194;43.408;24.626;2023-09-18T05:19:44;4.13;;;3.73;;
8312;SDS011;4194;43.408;24.626;2023-09-18T05:22:10;6.23;;;3.97;;
8312;SDS011;4194;43.408;24.626;2023-09-18T05:24:39;5.63;;;3.70;;
8312;SDS011;4194;43.408;24.626;2023-09-18T05:27:05;7.13;;;4.00;;
8312;SDS011;4194;43.408;24.626;2023-09-18T05:29:34;9.50;;;4.30;;
8312;SDS011;4194;43.408;24.626;2023-09-18T05:32:01;9.93;;;4.63;;
8312;SDS011;4194;43.408;24.626;2023-09-18T05:34:27;7.03;;;3.80;;
8312;SDS011;4194;43.408;24.626;2023-09-18T05:36:53;9.50;;;4.13;;
8312;SDS011;4194;43.408;24.626;2023-09-18T05:39:18;8.30;;;3.80;;
8312;SDS011;4194;43.408;24.626;2023-09-18T05:41:44;6.57;;;3.93;;
8312;SDS011;4194;43.408;24.626;2023-09-18T05:44:10;8.23;;;3.60;;
8312;SDS011;4194;43.408;24.626;2023-09-18T05:46:36;4.87;;;3.27;;
8312;SDS011;4194;43.408;24.626;2023-09-18T05:49:02;6.53;;;3.30;;
8312;SDS011;4194;43.408;24.626;2023-09-18T05:51:29;4.87;;;3.53;;
8312;SDS011;4194;43.408;24.626;2023-09-18T05:53:56;6.87;;;3.90;;
8312;SDS011;4194;43.408;24.626;2023-09-18T05:56:21;4.40;;;3.10;;
8312;SDS011;4194;43.408;24.626;2023-09-18T05:58:49;11.30;;;3.60;;
8312;SDS011;4194;43.408;24.626;2023-09-18T06:01:14;4.67;;;3.60;;
8312;SDS011;4194;43.408;24.626;2023-09-18T06:03:40;8.97;;;3.60;;
8312;SDS011;4194;43.408;24.626;2023-09-18T06:06:06;5.03;;;3.90;;
8312;SDS011;4194;43.408;24.626;2023-09-18T06:08:33;5.07;;;3.20;;
8312;SDS011;4194;43.408;24.626;2023-09-18T06:10:59;9.77;;;3.00;;
8312;SDS011;4194;43.408;24.626;2023-09-18T06:13:25;6.37;;;3.10;;
8312;SDS011;4194;43.408;24.626;2023-09-18T06:15:54;5.97;;;3.50;;
8312;SDS011;4194;43.408;24.626;2023-09-18T06:18:21;5.63;;;3.10;;
8312;SDS011;4194;43.408;24.626;2023-09-18T06:20:47;5.60;;;3.77;;
8312;SDS011;4194;43.408;24.626;2023-09-18T06:23:13;9.47;;;3.67;;
8312;SDS011;4194;43.408;24.626;2023-09-18T06:25:39;6.57;;;3.33;;
8312;SDS011;4194;43.408;24.626;2023-09-18T06:28:05;5.27;;;3.17;;
8312;SDS011;4194;43.408;24.626;2023-09-18T06:30:31;4.97;;;3.00;;
8312;SDS011;4194;43.408;24.626;2023-09-18T06:32:58;5.60;;;3.03;;
8312;SDS011;4194;43.408;24.626;2023-09-18T06:35:24;8.30;;;3.47;;
8312;SDS011;4194;43.408;24.626;2023-09-18T06:37:50;5.37;;;3.27;;
8312;SDS011;4194;43.408;24.626;2023-09-18T06:40:16;5.70;;;3.30;;
8312;SDS011;4194;43.408;24.626;2023-09-18T06:42:42;4.83;;;2.90;;
8312;SDS011;4194;43.408;24.626;2023-09-18T06:45:09;6.03;;;3.00;;
8312;SDS011;4194;43.408;24.626;2023-09-18T06:47:35;4.90;;;3.03;;
8312;SDS011;4194;43.408;24.626;2023-09-18T06:50:00;3.23;;;2.90;;
8312;SDS011;4194;43.408;24.626;2023-09-18T06:52:27;7.87;;;3.23;;
8312;SDS011;4194;43.408;24.626;2023-09-18T06:54:54;9.23;;;3.10;;
8312;SDS011;4194;43.408;24.626;2023-09-18T06:57:19;3.50;;;2.93;;
8312;SDS011;4194;43.408;24.626;2023-09-18T06:59:46;4.67;;;2.70;;
8312;SDS011;4194;43.408;24.626;2023-09-18T07:02:12;5.17;;;2.93;;
8312;SDS011;4194;43.408;24.626;2023-09-18T07:04:41;4.63;;;2.63;;
8312;SDS011;4194;43.408;24.626;2023-09-18T07:07:13;5.30;;;3.00;;
8312;SDS011;4194;43.408;24.626;2023-09-18T07:09:40;5.20;;;2.63;;
8312;SDS011;4194;43.408;24.626;2023-09-18T07:12:07;5.63;;;2.77;;
8312;SDS011;4194;43.408;24.626;2023-09-18T07:14:36;4.07;;;2.70;;
8312;SDS011;4194;43.408;24.626;2023-09-18T07:17:03;7.50;;;2.80;;
8312;SDS011;4194;43.408;24.626;2023-09-18T07:19:29;4.67;;;2.70;;
8312;SDS011;4194;43.408;24.626;2023-09-18T07:21:55;3.00;;;2.50;;
8312;SDS011;4194;43.408;24.626;2023-09-18T07:24:20;3.77;;;2.63;;
8312;SDS011;4194;43.408;24.626;2023-09-18T07:26:47;7.67;;;2.83;;
8312;SDS011;4194;43.408;24.626;2023-09-18T07:29:16;3.37;;;2.40;;
8312;SDS011;4194;43.408;24.626;2023-09-18T07:31:42;3.80;;;2.80;;
8312;SDS011;4194;43.408;24.626;2023-09-18T07:34:08;4.10;;;2.47;;
8312;SDS011;4194;43.408;24.626;2023-09-18T07:36:35;4.00;;;2.30;;
8312;SDS011;4194;43.408;24.626;2023-09-18T07:39:01;4.10;;;2.90;;
8312;SDS011;4194;43.408;24.626;2023-09-18T07:41:27;3.47;;;2.70;;
8312;SDS011;4194;43.408;24.626;2023-09-18T07:43:53;6.00;;;2.63;;
8312;SDS011;4194;43.408;24.626;2023-09-18T07:46:18;4.40;;;2.60;;
8312;SDS011;4194;43.408;24.626;2023-09-18T07:48:44;5.27;;;2.43;;
8312;SDS011;4194;43.408;24.626;2023-09-18T07:51:13;7.03;;;2.37;;
8312;SDS011;4194;43.408;24.626;2023-09-18T07:53:42;4.23;;;2.30;;
8312;SDS011;4194;43.408;24.626;2023-09-18T07:56:08;2.73;;;2.10;;
8312;SDS011;4194;43.408;24.626;2023-09-18T07:58:34;3.53;;;2.30;;
8312;SDS011;4194;43.408;24.626;2023-09-18T08:01:03;4.90;;;2.80;;
8312;SDS011;4194;43.408;24.626;2023-09-18T08:03:35;4.93;;;2.70;;
8312;SDS011;4194;43.408;24.626;2023-09-18T08:06:01;4.07;;;2.50;;
8312;SDS011;4194;43.408;24.626;2023-09-18T08:08:29;2.90;;;2.30;;
8312;SDS011;4194;43.408;24.626;2023-09-18T08:10:57;3.43;;;2.70;;
8312;SDS011;4194;43.408;24.626;2023-09-18T08:13:27;2.90;;;2.50;;
8312;SDS011;4194;43.408;24.626;2023-09-18T08:15:52;3.63;;;2.27;;
8312;SDS011;4194;43.408;24.626;2023-09-18T08:18:19;4.80;;;2.17;;
8312;SDS011;4194;43.408;24.626;2023-09-18T08:20:44;4.30;;;2.10;;
8312;SDS011;4194;43.408;24.626;2023-09-18T08:23:10;5.20;;;2.43;;
8312;SDS011;4194;43.408;24.626;2023-09-18T08:25:37;2.10;;;1.90;;
8312;SDS011;4194;43.408;24.626;2023-09-18T08:28:03;3.30;;;2.40;;
8312;SDS011;4194;43.408;24.626;2023-09-18T08:30:29;3.30;;;2.33;;
8312;SDS011;4194;43.408;24.626;2023-09-18T08:32:56;3.20;;;2.37;;
8312;SDS011;4194;43.408;24.626;2023-09-18T08:35:21;3.70;;;2.47;;
8312;SDS011;4194;43.408;24.626;2023-09-18T08:37:48;4.90;;;2.13;;
8312;SDS011;4194;43.408;24.626;2023-09-18T08:40:14;4.87;;;2.60;;
8312;SDS011;4194;43.408;24.626;2023-09-18T08:42:40;5.80;;;1.90;;
8312;SDS011;4194;43.408;24.626;2023-09-18T08:45:10;2.67;;;2.13;;
8312;SDS011;4194;43.408;24.626;2023-09-18T08:47:42;4.47;;;1.97;;
8312;SDS011;4194;43.408;24.626;2023-09-18T08:50:09;3.20;;;2.07;;
8312;SDS011;4194;43.408;24.626;2023-09-18T08:52:35;4.23;;;2.10;;
8312;SDS011;4194;43.408;24.626;2023-09-18T08:55:02;2.53;;;1.83;;
8312;SDS011;4194;43.408;24.626;2023-09-18T08:57:29;2.90;;;1.70;;
8312;SDS011;4194;43.408;24.626;2023-09-18T08:59:55;6.47;;;1.97;;
8312;SDS011;4194;43.408;24.626;2023-09-18T09:02:23;4.63;;;1.90;;
8312;SDS011;4194;43.408;24.626;2023-09-18T09:04:49;4.47;;;2.10;;
8312;SDS011;4194;43.408;24.626;2023-09-18T09:07:15;4.10;;;2.00;;
8312;SDS011;4194;43.408;24.626;2023-09-18T09:09:41;2.93;;;1.73;;
8312;SDS011;4194;43.408;24.626;2023-09-18T09:12:07;5.23;;;2.10;;
8312;SDS011;4194;43.408;24.626;2023-09-18T09:14:33;2.43;;;2.20;;
8312;SDS011;4194;43.408;24.626;2023-09-18T09:16:59;3.20;;;1.97;;
8312;SDS011;4194;43.408;24.626;2023-09-18T09:19:29;2.27;;;1.97;;
8312;SDS011;4194;43.408;24.626;2023-09-18T09:22:02;4.20;;;2.00;;
8312;SDS011;4194;43.408;24.626;2023-09-18T09:24:35;3.30;;;1.93;;
8312;SDS011;4194;43.408;24.626;2023-09-18T09:27:04;4.20;;;2.07;;
8312;SDS011;4194;43.408;24.626;2023-09-18T09:29:30;2.93;;;2.20;;
8312;SDS011;4194;43.408;24.626;2023-09-18T09:31:56;5.90;;;1.70;;
8312;SDS011;4194;43.408;24.626;2023-09-18T09:34:36;4.80;;;1.97;;
8312;SDS011;4194;43.408;24.626;2023-09-18T09:37:02;3.77;;;1.97;;
8312;SDS011;4194;43.408;24.626;2023-09-18T09:39:29;6.80;;;2.30;;
8312;SDS011;4194;43.408;24.626;2023-09-18T09:41:55;2.47;;;1.70;;
8312;SDS011;4194;43.408;24.626;2023-09-18T09:44:31;3.50;;;1.90;;
8312;SDS011;4194;43.408;24.626;2023-09-18T09:46:57;3.43;;;1.80;;
8312;SDS011;4194;43.408;24.626;2023-09-18T09:49:24;1.70;;;1.60;;
8312;SDS011;4194;43.408;24.626;2023-09-18T09:51:53;4.30;;;1.77;;
8312;SDS011;4194;43.408;24.626;2023-09-18T09:54:40;1.83;;;1.50;;
8312;SDS011;4194;43.408;24.626;2023-09-18T09:57:06;1.73;;;1.57;;
8312;SDS011;4194;43.408;24.626;2023-09-18T09:59:32;2.77;;;1.50;;
8312;SDS011;4194;43.408;24.626;2023-09-18T10:02:00;2.97;;;1.47;;
8312;SDS011;4194;43.408;24.626;2023-09-18T10:04:27;3.07;;;1.37;;
8312;SDS011;4194;43.408;24.626;2023-09-18T10:07:05;1.80;;;1.30;;
8312;SDS011;4194;43.408;24.626;2023-09-18T10:09:33;1.67;;;1.57;;
8312;SDS011;4194;43.408;24.626;2023-09-18T10:12:00;4.90;;;1.70;;
8312;SDS011;4194;43.408;24.626;2023-09-18T10:14:30;4.40;;;1.23;;
8312;SDS011;4194;43.408;24.626;2023-09-18T10:16:59;1.70;;;1.60;;
8312;SDS011;4194;43.408;24.626;2023-09-18T10:19:42;2.93;;;1.47;;
8312;SDS011;4194;43.408;24.626;2023-09-18T10:22:39;2.77;;;1.63;;
8312;SDS011;4194;43.408;24.626;2023-09-18T10:25:11;1.97;;;1.53;;
8312;SDS011;4194;43.408;24.626;2023-09-18T10:27:43;4.80;;;1.50;;
8312;SDS011;4194;43.408;24.626;2023-09-18T10:30:14;3.13;;;1.70;;
8312;SDS011;4194;43.408;24.626;2023-09-18T10:32:43;2.63;;;1.70;;
8312;SDS011;4194;43.408;24.626;2023-09-18T10:35:13;2.40;;;1.50;;
8312;SDS011;4194;43.408;24.626;2023-09-18T10:37:39;1.80;;;1.70;;
8312;SDS011;4194;43.408;24.626;2023-09-18T10:40:10;2.10;;;1.50;;
8312;SDS011;4194;43.408;24.626;2023-09-18T10:42:40;1.73;;;1.60;;
8312;SDS011;4194;43.408;24.626;2023-09-18T10:45:07;3.77;;;1.67;;
8312;SDS011;4194;43.408;24.626;2023-09-18T10:47:41;7.15;;;1.80;;
8312;SDS011;4194;43.408;24.626;2023-09-18T10:50:10;3.35;;;1.75;;
8312;SDS011;4194;43.408;24.626;2023-09-18T10:52:43;2.63;;;1.45;;
8312;SDS011;4194;43.408;24.626;2023-09-18T10:55:12;2.78;;;1.67;;
8312;SDS011;4194;43.408;24.626;2023-09-18T11:00:26;3.55;;;1.50;;
8312;SDS011;4194;43.408;24.626;2023-09-18T11:03:15;3.55;;;1.60;;
8312;SDS011;4194;43.408;24.626;2023-09-18T11:05:43;6.45;;;1.80;;
8312;SDS011;4194;43.408;24.626;2023-09-18T11:08:29;4.95;;;2.08;;
8312;SDS011;4194;43.408;24.626;2023-09-18T11:11:06;5.38;;;1.92;;
8312;SDS011;4194;43.408;24.626;2023-09-18T11:13:45;4.28;;;1.95;;
8312;SDS011;4194;43.408;24.626;2023-09-18T11:19:16;3.92;;;2.42;;
8312;SDS011;4194;43.408;24.626;2023-09-18T11:21:42;2.30;;;2.10;;
8312;SDS011;4194;43.408;24.626;2023-09-18T11:24:15;4.45;;;2.53;;
8312;SDS011;4194;43.408;24.626;2023-09-18T11:26:43;2.25;;;2.05;;
8312;SDS011;4194;43.408;24.626;2023-09-18T11:29:13;3.42;;;1.90;;
8312;SDS011;4194;43.408;24.626;2023-09-18T11:31:42;5.15;;;2.65;;
8312;SDS011;4194;43.408;24.626;2023-09-18T11:34:26;2.92;;;2.72;;
8312;SDS011;4194;43.408;24.626;2023-09-18T11:36:53;3.67;;;2.05;;
8312;SDS011;4194;43.408;24.626;2023-09-18T11:39:32;3.22;;;2.47;;
8312;SDS011;4194;43.408;24.626;2023-09-18T11:44:33;2.70;;;2.50;;
8312;SDS011;4194;43.408;24.626;2023-09-18T11:47:01;2.65;;;2.05;;
8312;SDS011;4194;43.408;24.626;2023-09-18T11:49:29;3.33;;;2.15;;
8312;SDS011;4194;43.408;24.626;2023-09-18T11:52:00;4.70;;;2.13;;
8312;SDS011;4194;43.408;24.626;2023-09-18T11:54:27;2.72;;;2.50;;
8312;SDS011;4194;43.408;24.626;2023-09-18T11:56:54;3.33;;;2.08;;
8312;SDS011;4194;43.408;24.626;2023-09-18T11:59:32;2.42;;;2.10;;
8312;SDS011;4194;43.408;24.626;2023-09-18T12:02:00;2.50;;;2.15;;
8312;SDS011;4194;43.408;24.626;2023-09-18T12:04:31;3.17;;;2.45;;
8312;SDS011;4194;43.408;24.626;2023-09-18T12:06:58;8.35;;;2.20;;
8312;SDS011;4194;43.408;24.626;2023-09-18T12:09:28;2.50;;;2.28;;
8312;SDS011;4194;43.408;24.626;2023-09-18T12:11:56;2.22;;;2.00;;
8312;SDS011;4194;43.408;24.626;2023-09-18T12:14:30;2.65;;;2.17;;
8312;SDS011;4194;43.408;24.626;2023-09-18T12:16:58;3.05;;;2.10;;
8312;SDS011;4194;43.408;24.626;2023-09-18T12:19:26;3.15;;;2.45;;
8312;SDS011;4194;43.408;24.626;2023-09-18T12:21:52;4.13;;;2.50;;
8312;SDS011;4194;43.408;24.626;2023-09-18T12:24:22;4.22;;;2.50;;
8312;SDS011;4194;43.408;24.626;2023-09-18T12:26:48;4.22;;;2.42;;
8312;SDS011;4194;43.408;24.626;2023-09-18T12:29:15;4.43;;;2.58;;
8312;SDS011;4194;43.408;24.626;2023-09-18T12:31:41;3.55;;;2.33;;
8312;SDS011;4194;43.408;24.626;2023-09-18T12:34:14;2.80;;;2.08;;
8312;SDS011;4194;43.408;24.626;2023-09-18T12:36:43;3.97;;;2.45;;
8312;SDS011;4194;43.408;24.626;2023-09-18T12:39:13;3.80;;;2.53;;
8312;SDS011;4194;43.408;24.626;2023-09-18T12:41:45;5.38;;;2.22;;
8312;SDS011;4194;43.408;24.626;2023-09-18T12:44:12;4.25;;;2.50;;
8312;SDS011;4194;43.408;24.626;2023-09-18T12:46:41;2.45;;;2.25;;
8312;SDS011;4194;43.408;24.626;2023-09-18T12:49:16;3.53;;;2.30;;
8312;SDS011;4194;43.408;24.626;2023-09-18T12:51:56;3.55;;;2.38;;
8312;SDS011;4194;43.408;24.626;2023-09-18T12:54:44;3.20;;;2.20;;
8312;SDS011;4194;43.408;24.626;2023-09-18T12:57:19;3.13;;;2.80;;
8312;SDS011;4194;43.408;24.626;2023-09-18T12:59:45;5.25;;;2.10;;
8312;SDS011;4194;43.408;24.626;2023-09-18T13:02:15;3.78;;;2.67;;
8312;SDS011;4194;43.408;24.626;2023-09-18T13:04:50;3.25;;;2.58;;
8312;SDS011;4194;43.408;24.626;2023-09-18T13:07:17;3.13;;;2.38;;
8312;SDS011;4194;43.408;24.626;2023-09-18T13:09:43;2.40;;;2.15;;
8312;SDS011;4194;43.408;24.626;2023-09-18T13:12:24;3.42;;;2.38;;
8312;SDS011;4194;43.408;24.626;2023-09-18T13:14:59;3.25;;;2.50;;
8312;SDS011;4194;43.408;24.626;2023-09-18T13:17:44;3.78;;;2.10;;
8312;SDS011;4194;43.408;24.626;2023-09-18T13:22:40;4.43;;;2.72;;
8312;SDS011;4194;43.408;24.626;2023-09-18T13:25:07;5.07;;;2.60;;
8312;SDS011;4194;43.408;24.626;2023-09-18T13:27:34;3.72;;;2.50;;
8312;SDS011;4194;43.408;24.626;2023-09-18T13:30:00;3.97;;;2.58;;
8312;SDS011;4194;43.408;24.626;2023-09-18T13:32:32;3.60;;;2.40;;
8312;SDS011;4194;43.408;24.626;2023-09-18T13:35:04;2.40;;;2.20;;
8312;SDS011;4194;43.408;24.626;2023-09-18T13:37:34;2.95;;;2.60;;
8312;SDS011;4194;43.408;24.626;2023-09-18T13:40:00;4.47;;;2.28;;
8312;SDS011;4194;43.408;24.626;2023-09-18T13:42:28;6.85;;;2.67;;
8312;SDS011;4194;43.408;24.626;2023-09-18T13:44:57;7.38;;;2.63;;
8312;SDS011;4194;43.408;24.626;2023-09-18T13:47:27;6.22;;;2.63;;
8312;SDS011;4194;43.408;24.626;2023-09-18T13:49:53;2.60;;;2.40;;
8312;SDS011;4194;43.408;24.626;2023-09-18T13:52:22;5.85;;;2.83;;
8312;SDS011;4194;43.408;24.626;2023-09-18T13:54:49;2.97;;;2.70;;
8312;SDS011;4194;43.408;24.626;2023-09-18T13:57:17;4.95;;;2.60;;
8312;SDS011;4194;43.408;24.626;2023-09-18T13:59:47;4.05;;;2.47;;
8312;SDS011;4194;43.408;24.626;2023-09-18T14:02:14;5.53;;;2.70;;
8312;SDS011;4194;43.408;24.626;2023-09-18T14:04:40;4.53;;;2.90;;
8312;SDS011;4194;43.408;24.626;2023-09-18T14:07:06;4.22;;;2.60;;
8312;SDS011;4194;43.408;24.626;2023-09-18T14:09:33;5.18;;;2.22;;
8312;SDS011;4194;43.408;24.626;2023-09-18T14:12:00;3.90;;;2.92;;
8312;SDS011;4194;43.408;24.626;2023-09-18T14:14:28;6.15;;;2.78;;
8312;SDS011;4194;43.408;24.626;2023-09-18T14:16:54;3.05;;;2.47;;
8312;SDS011;4194;43.408;24.626;2023-09-18T14:19:20;4.35;;;2.47;;
8312;SDS011;4194;43.408;24.626;2023-09-18T14:21:46;3.85;;;2.60;;
8312;SDS011;4194;43.408;24.626;2023-09-18T14:24:14;8.93;;;3.08;;
8312;SDS011;4194;43.408;24.626;2023-09-18T14:26:43;2.72;;;2.53;;
8312;SDS011;4194;43.408;24.626;2023-09-18T14:29:09;4.35;;;2.50;;
8312;SDS011;4194;43.408;24.626;2023-09-18T14:31:38;4.53;;;2.75;;
8312;SDS011;4194;43.408;24.626;2023-09-18T14:34:04;4.93;;;2.83;;
8312;SDS011;4194;43.408;24.626;2023-09-18T14:36:33;2.80;;;2.50;;
8312;SDS011;4194;43.408;24.626;2023-09-18T14:39:02;4.53;;;2.72;;
8312;SDS011;4194;43.408;24.626;2023-09-18T14:41:28;6.47;;;2.60;;
8312;SDS011;4194;43.408;24.626;2023-09-18T14:43:55;2.72;;;2.47;;
8312;SDS011;4194;43.408;24.626;2023-09-18T14:46:23;4.68;;;2.35;;
8312;SDS011;4194;43.408;24.626;2023-09-18T14:48:50;4.45;;;2.42;;
8312;SDS011;4194;43.408;24.626;2023-09-18T14:51:15;2.83;;;2.58;;
8312;SDS011;4194;43.408;24.626;2023-09-18T14:53:42;4.15;;;2.80;;
8312;SDS011;4194;43.408;24.626;2023-09-18T14:56:07;3.83;;;2.83;;
8312;SDS011;4194;43.408;24.626;2023-09-18T14:58:33;6.32;;;2.70;;
8312;SDS011;4194;43.408;24.626;2023-09-18T15:00:59;2.58;;;2.35;;
8312;SDS011;4194;43.408;24.626;2023-09-18T15:03:25;5.07;;;2.90;;
8312;SDS011;4194;43.408;24.626;2023-09-18T15:05:51;4.13;;;3.38;;
8312;SDS011;4194;43.408;24.626;2023-09-18T15:08:18;3.42;;;3.13;;
8312;SDS011;4194;43.408;24.626;2023-09-18T15:10:45;7.38;;;3.50;;
8312;SDS011;4194;43.408;24.626;2023-09-18T15:13:11;5.88;;;2.88;;
8312;SDS011;4194;43.408;24.626;2023-09-18T15:15:38;3.42;;;2.80;;